Time;durP1;ratioP1;P1;durP2;ratioP2;P2;SDS_P1;SDS_P2;PMS_P1;PMS_P2;Temp;Humidity;BMP_temperature;BMP_pressure;BME280_temperature;BME280_humidity;BME280_pressure;Samples;Min_cycle;Max_cycle;Signal;HPM_P1;HPM_P2
2021/08/14 00:03:36;;;;;;;14.87;9.27;;;;;;;23.76;60.71;98522.56;8353228;28;20204;-89
2021/08/14 00:07:39;;;;;;;15.77;9.63;;;;;;;23.63;60.84;98509.63;8353201;28;20212;-88
2021/08/14 00:11:44;;;;;;;15.47;9.67;;;;;;;23.68;60.97;98509.19;8353004;28;20205;-89
2021/08/14 00:15:46;;;;;;;14.73;9.37;;;;;;;23.65;61.14;98517.41;8351968;28;20497;-89
2021/08/14 00:19:51;;;;;;;16.83;9.97;;;;;;;23.58;61.38;98520.59;8352565;28;20228;-89
2021/08/14 00:23:53;;;;;;;15.17;9.27;;;;;;;23.62;61.00;98518.50;8352740;28;20211;-88
2021/08/14 00:27:56;;;;;;;12.53;9.03;;;;;;;23.55;61.55;98520.03;8352571;28;20209;-89
2021/08/14 00:32:00;;;;;;;16.20;9.53;;;;;;;23.55;61.20;98515.59;8352393;28;20273;-89
2021/08/14 00:36:05;;;;;;;11.77;9.60;;;;;;;23.52;61.35;98518.50;8352289;28;20428;-89
2021/08/14 00:40:09;;;;;;;14.17;10.17;;;;;;;23.47;61.11;98517.25;8352008;28;20532;-88
2021/08/14 00:44:11;;;;;;;15.70;9.67;;;;;;;23.44;61.28;98510.44;8351916;28;20419;-89
2021/08/14 00:48:14;;;;;;;11.97;9.80;;;;;;;23.42;61.48;98513.19;8351918;28;20214;-89
2021/08/14 00:52:18;;;;;;;14.27;9.60;;;;;;;23.37;61.68;98506.66;8351800;28;20551;-89
2021/08/14 00:56:22;;;;;;;11.40;9.50;;;;;;;23.36;60.99;98508.47;8351535;28;20205;-86
2021/08/14 01:00:25;;;;;;;14.47;10.10;;;;;;;23.30;61.10;98498.41;8351313;28;20228;-86
2021/08/14 01:04:29;;;;;;;12.20;9.97;;;;;;;23.21;61.57;98502.72;8351390;28;20234;-87
2021/08/14 01:08:33;;;;;;;12.80;10.30;;;;;;;23.18;61.32;98492.41;8351513;28;20207;-87
2021/08/14 01:12:36;;;;;;;15.97;9.90;;;;;;;23.22;61.48;98508.84;8351396;28;20211;-87
2021/08/14 01:16:38;;;;;;;15.80;10.20;;;;;;;23.14;61.64;98506.03;8351077;28;20291;-87
2021/08/14 01:20:42;;;;;;;13.80;10.37;;;;;;;23.11;61.97;98507.13;8354303;28;20419;-83
2021/08/14 01:24:46;;;;;;;12.57;9.23;;;;;;;23.11;62.06;98501.84;8383314;28;20203;-84
2021/08/14 01:28:51;;;;;;;11.80;9.80;;;;;;;23.07;61.89;98504.91;8383221;28;20200;-84
2021/08/14 01:32:55;;;;;;;11.93;9.97;;;;;;;23.06;62.05;98511.16;8383570;28;20241;-82
2021/08/14 01:36:57;;;;;;;11.33;10.00;;;;;;;22.93;62.41;98512.19;8382779;28;20228;-83
2021/08/14 01:41:00;;;;;;;13.70;9.93;;;;;;;23.00;61.74;98515.16;8383372;28;20411;-82
2021/08/14 01:45:07;;;;;;;13.60;9.90;;;;;;;22.93;61.91;98512.19;8383645;28;20200;-88
2021/08/14 01:49:10;;;;;;;15.27;9.90;;;;;;;22.87;62.30;98514.53;8383675;28;20226;-87
2021/08/14 01:53:12;;;;;;;14.07;10.43;;;;;;;22.80;62.15;98511.56;8383865;28;20206;-86
2021/08/14 01:57:17;;;;;;;16.40;10.40;;;;;;;22.75;62.45;98506.72;8383189;28;20206;-89
2021/08/14 02:01:21;;;;;;;11.37;9.90;;;;;;;22.83;62.03;98511.31;8383613;28;20556;-88
2021/08/14 02:05:24;;;;;;;13.57;10.30;;;;;;;22.76;61.98;98508.38;8383712;28;20223;-87
2021/08/14 02:09:27;;;;;;;12.70;9.37;;;;;;;22.81;61.61;98508.81;8383888;28;20203;-88
2021/08/14 02:13:30;;;;;;;11.80;9.60;;;;;;;22.71;61.58;98510.56;8388924;28;20207;-88
2021/08/14 02:17:35;;;;;;;11.23;8.80;;;;;;;22.69;61.63;98503.75;8388173;28;20199;-88
2021/08/14 02:21:37;;;;;;;14.17;9.47;;;;;;;22.68;61.28;98500.28;8383083;28;20223;-88
2021/08/14 02:25:40;;;;;;;16.03;9.73;;;;;;;22.65;61.36;98500.53;8383285;28;20210;-88
2021/08/14 02:29:43;;;;;;;12.27;9.50;;;;;;;22.59;61.60;98503.69;8383335;28;20390;-87
2021/08/14 02:33:48;;;;;;;15.27;10.50;;;;;;;22.54;61.65;98512.03;8383009;28;20203;-83
2021/08/14 02:37:51;;;;;;;13.20;10.10;;;;;;;22.48;61.78;98507.25;8382326;28;20235;-83
2021/08/14 02:41:54;;;;;;;11.60;9.90;;;;;;;22.51;61.76;98501.72;8387268;28;20228;-83
2021/08/14 02:46:00;;;;;;;13.30;10.20;;;;;;;22.55;62.06;98503.13;8388404;28;20203;-83
2021/08/14 02:50:05;;;;;;;13.50;10.13;;;;;;;22.51;61.87;98499.06;8388547;28;20269;-85
2021/08/14 02:54:08;;;;;;;12.87;10.40;;;;;;;22.44;61.74;98495.28;8388728;28;20211;-85
2021/08/14 02:58:11;;;;;;;11.60;9.47;;;;;;;22.47;61.96;98492.38;8388144;28;20197;-85
2021/08/14 03:02:14;;;;;;;14.07;10.37;;;;;;;22.38;62.10;98485.25;8388165;28;20225;-85
2021/08/14 03:06:25;;;;;;;13.37;11.33;;;;;;;22.33;62.75;98482.16;8388012;28;20223;-84
2021/08/14 03:10:28;;;;;;;14.17;11.03;;;;;;;22.26;62.22;98479.22;8387980;28;20204;-84
2021/08/14 03:14:31;;;;;;;12.10;10.30;;;;;;;22.24;62.25;98478.47;8387764;28;20207;-84
2021/08/14 03:18:34;;;;;;;13.03;10.23;;;;;;;22.24;62.49;98486.41;8387603;28;20203;-84
2021/08/14 03:22:38;;;;;;;13.03;10.30;;;;;;;22.20;62.10;98479.69;8388022;28;20238;-87
2021/08/14 03:26:41;;;;;;;14.93;10.70;;;;;;;22.20;62.34;98484.94;8387642;28;20208;-87
2021/08/14 03:30:43;;;;;;;14.87;11.03;;;;;;;22.17;62.43;98480.78;8387490;28;20199;-86
2021/08/14 03:34:46;;;;;;;13.83;10.50;;;;;;;22.16;61.88;98494.94;8390467;28;20234;-87
2021/08/14 03:38:50;;;;;;;12.03;10.30;;;;;;;22.13;61.97;98489.94;8387206;28;20238;-87
2021/08/14 03:42:53;;;;;;;14.23;11.00;;;;;;;22.01;62.26;98497.06;8387231;28;20211;-87
2021/08/14 03:46:57;;;;;;;15.60;10.60;;;;;;;21.97;62.18;98500.06;8387050;28;20203;-88
2021/08/14 03:50:59;;;;;;;13.67;10.23;;;;;;;21.99;61.67;98498.13;8386637;28;20213;-88
2021/08/14 03:55:06;;;;;;;13.93;9.70;;;;;;;21.99;61.71;98493.72;8386666;28;20207;-88
2021/08/14 03:59:09;;;;;;;11.87;9.67;;;;;;;21.97;61.83;98492.16;8386807;28;20208;-89
2021/08/14 04:03:11;;;;;;;15.90;10.70;;;;;;;21.89;61.74;98492.78;8386453;28;20404;-86
2021/08/14 04:07:14;;;;;;;12.77;10.57;;;;;;;21.84;61.75;98489.72;8386108;28;20226;-86
2021/08/14 04:11:18;;;;;;;13.17;9.87;;;;;;;21.86;61.63;98491.25;8386026;28;20490;-86
2021/08/14 04:15:21;;;;;;;11.63;10.43;;;;;;;21.88;61.73;98485.84;8386119;28;20202;-86
2021/08/14 04:19:24;;;;;;;14.53;11.10;;;;;;;21.78;61.66;98491.06;8385436;28;20329;-86
2021/08/14 04:23:27;;;;;;;12.23;10.57;;;;;;;21.83;61.47;98494.13;8385622;28;20199;-86
2021/08/14 04:27:31;;;;;;;15.40;10.50;;;;;;;21.83;61.59;98498.56;8385639;28;20204;-87
2021/08/14 04:31:34;;;;;;;14.27;11.07;;;;;;;21.71;62.28;98505.69;8391509;28;20206;-89
2021/08/14 04:35:37;;;;;;;12.37;10.93;;;;;;;21.74;62.47;98509.88;8390746;28;20408;-87
2021/08/14 04:39:39;;;;;;;15.93;10.67;;;;;;;21.80;62.12;98507.59;8386184;28;20235;-88
2021/08/14 04:43:43;;;;;;;14.03;11.00;;;;;;;21.76;62.50;98503.53;8386312;28;20483;-88
2021/08/14 04:47:46;;;;;;;14.80;10.83;;;;;;;21.76;62.52;98506.16;8385151;28;20520;-85
2021/08/14 04:51:49;;;;;;;12.37;10.87;;;;;;;21.88;62.42;98514.84;8384764;28;20203;-85
2021/08/14 04:55:52;;;;;;;15.23;11.63;;;;;;;21.83;62.83;98511.75;8386168;28;20200;-89
2021/08/14 04:59:56;;;;;;;13.57;11.40;;;;;;;21.84;63.10;98516.91;8403932;28;20250;-89
2021/08/14 05:03:59;;;;;;;14.27;12.53;;;;;;;21.88;63.09;98514.03;8388651;28;20222;-90
2021/08/14 05:08:01;;;;;;;14.67;12.47;;;;;;;21.92;63.10;98518.09;8384628;28;20203;-87
2021/08/14 05:12:05;;;;;;;13.83;11.97;;;;;;;21.97;62.94;98511.47;8384306;28;20409;-87
2021/08/14 05:16:09;;;;;;;13.83;12.43;;;;;;;21.98;63.26;98522.84;8384128;28;20199;-87
2021/08/14 05:20:13;;;;;;;15.13;11.90;;;;;;;22.07;63.37;98524.72;8384058;28;20226;-88
2021/08/14 05:24:15;;;;;;;15.60;12.50;;;;;;;22.04;63.67;98530.25;8383857;28;20211;-88
2021/08/14 05:28:18;;;;;;;13.77;12.37;;;;;;;22.07;64.20;98522.09;8384112;28;20211;-90
2021/08/14 05:32:22;;;;;;;13.80;12.10;;;;;;;22.18;63.94;98531.72;8384193;28;20212;-90
2021/08/14 05:36:25;;;;;;;19.97;13.37;;;;;;;22.17;64.11;98527.44;8387641;28;20419;-90
2021/08/14 05:40:28;;;;;;;13.23;11.80;;;;;;;22.40;63.52;98536.91;8385006;28;20227;-92
2021/08/14 05:44:31;;;;;;;14.70;13.20;;;;;;;22.38;63.57;98540.66;8384663;28;20204;-91
2021/08/14 05:48:35;;;;;;;13.60;12.03;;;;;;;22.59;63.75;98545.94;8384065;28;20211;-91
2021/08/14 05:52:37;;;;;;;14.40;12.90;;;;;;;22.63;63.64;98548.16;8383957;28;20504;-90
2021/08/14 05:56:40;;;;;;;18.63;14.23;;;;;;;22.72;63.70;98549.19;8383946;28;20204;-91
2021/08/14 06:00:43;;;;;;;15.50;12.97;;;;;;;22.82;64.01;98542.16;8383858;28;20227;-90
2021/08/14 06:04:47;;;;;;;15.60;13.10;;;;;;;23.06;62.68;98546.34;8383597;28;20230;-90
2021/08/14 06:08:50;;;;;;;14.87;13.27;;;;;;;23.19;62.53;98541.66;8383723;28;20207;-90
2021/08/14 06:12:53;;;;;;;15.40;13.33;;;;;;;23.45;62.04;98538.50;8383495;28;20234;-90
2021/08/14 06:16:57;;;;;;;17.30;13.03;;;;;;;23.62;61.28;98537.84;8390250;28;20245;-90
2021/08/14 06:21:01;;;;;;;14.27;12.87;;;;;;;23.80;61.07;98540.69;8390530;28;20238;-91
2021/08/14 06:25:04;;;;;;;15.50;13.80;;;;;;;23.80;61.53;98553.09;8390140;28;20211;-93
2021/08/14 06:29:07;;;;;;;15.63;12.93;;;;;;;23.95;61.74;98548.22;8390155;28;20206;-92
2021/08/14 06:33:09;;;;;;;17.83;13.87;;;;;;;24.17;60.30;98550.56;8389943;28;20202;-94
2021/08/14 06:37:14;;;;;;;17.83;13.30;;;;;;;24.29;60.43;98551.25;8391437;28;20240;-93
2021/08/14 06:41:16;;;;;;;16.60;13.20;;;;;;;24.46;60.20;98548.88;8390109;28;20243;-92
2021/08/14 06:45:19;;;;;;;16.77;14.00;;;;;;;24.39;60.68;98545.97;8390388;28;20206;-91
2021/08/14 06:49:22;;;;;;;16.47;13.93;;;;;;;24.56;60.29;98549.72;8389588;28;20212;-91
2021/08/14 06:53:26;;;;;;;18.13;14.03;;;;;;;24.65;59.81;98556.81;8389764;28;20210;-90
2021/08/14 06:57:29;;;;;;;14.50;13.00;;;;;;;24.97;59.30;98552.94;8389415;28;20218;-90
2021/08/14 07:01:32;;;;;;;14.40;12.90;;;;;;;25.10;59.03;98556.09;8389353;28;20228;-88
2021/08/14 07:05:35;;;;;;;14.17;12.13;;;;;;;25.33;57.84;98556.59;8388299;28;20219;-87
2021/08/14 07:09:39;;;;;;;14.67;12.93;;;;;;;25.20;58.35;98564.00;8388441;28;20218;-91
2021/08/14 07:13:42;;;;;;;16.07;12.87;;;;;;;25.21;57.66;98551.59;8388539;28;20212;-90
2021/08/14 07:17:45;;;;;;;18.10;13.97;;;;;;;25.27;57.75;98551.06;8388992;28;20218;-91
2021/08/14 07:21:47;;;;;;;17.50;12.37;;;;;;;25.46;58.36;98545.63;8388625;28;20224;-92
2021/08/14 07:25:52;;;;;;;13.77;12.13;;;;;;;25.79;56.50;98547.81;8388060;28;20227;-88
2021/08/14 07:29:55;;;;;;;14.37;11.73;;;;;;;26.05;56.29;98539.97;8387835;28;20209;-88
2021/08/14 07:33:58;;;;;;;13.90;11.80;;;;;;;26.07;56.28;98533.50;8389395;28;20232;-91
2021/08/14 07:38:01;;;;;;;14.00;11.63;;;;;;;26.27;55.21;98530.66;8407772;28;20236;-88
2021/08/14 07:42:06;;;;;;;17.97;13.10;;;;;;;26.46;54.75;98537.59;8393479;28;20227;-90
2021/08/14 07:46:10;;;;;;;15.50;12.63;;;;;;;26.42;54.97;98533.59;8388065;28;20385;-91
2021/08/14 07:50:14;;;;;;;15.07;12.77;;;;;;;26.80;54.36;98527.06;8387630;28;20203;-90
2021/08/14 07:54:17;;;;;;;20.87;13.10;;;;;;;27.03;53.24;98526.50;8388090;28;20271;-92
2021/08/14 07:58:21;;;;;;;16.17;13.13;;;;;;;27.20;53.18;98528.22;8387874;28;20207;-92
2021/08/14 08:02:24;;;;;;;17.50;13.37;;;;;;;27.10;53.98;98525.72;8387385;28;20225;-93
2021/08/14 08:06:27;;;;;;;16.13;13.50;;;;;;;27.49;51.86;98509.25;8387182;28;20224;-90
2021/08/14 08:10:30;;;;;;;16.03;13.67;;;;;;;27.74;51.58;98508.44;8387296;28;20233;-93
2021/08/14 08:14:34;;;;;;;15.47;13.77;;;;;;;27.77;51.87;98518.78;8388033;28;20209;-92
2021/08/14 08:18:37;;;;;;;15.97;12.17;;;;;;;28.16;50.79;98516.34;8386772;28;20517;-91
2021/08/14 08:22:40;;;;;;;16.07;12.43;;;;;;;28.42;51.03;98510.81;8376293;28;20218;-93
2021/08/14 08:26:43;;;;;;;14.57;11.53;;;;;;;28.81;49.05;98506.59;8364873;28;20205;-92
2021/08/14 08:30:47;;;;;;;11.57;10.43;;;;;;;29.00;46.57;98506.19;8372332;28;20220;-89
2021/08/14 08:34:50;;;;;;;18.30;10.33;;;;;;;29.24;46.58;98499.97;8370944;28;20248;-88
2021/08/14 08:38:56;;;;;;;14.13;10.73;;;;;;;29.34;45.46;98498.88;8370879;28;20230;-88
2021/08/14 08:42:58;;;;;;;11.43;8.87;;;;;;;29.64;43.05;98497.19;8365899;28;20238;-88
2021/08/14 08:47:05;;;;;;;11.27;9.50;;;;;;;29.73;43.41;98500.69;8365394;28;20207;-91
2021/08/14 08:51:09;;;;;;;13.87;8.60;;;;;;;29.74;41.89;98502.34;8365465;28;20203;-94
2021/08/14 08:55:13;;;;;;;16.83;10.77;;;;;;;29.86;42.40;98492.91;8359951;28;20206;-88
2021/08/14 08:59:16;;;;;;;10.83;9.40;;;;;;;30.13;42.86;98502.19;8370379;28;20192;-90
2021/08/14 09:03:24;;;;;;;11.23;9.13;;;;;;;30.34;41.17;98506.88;8370129;28;20423;-89
2021/08/14 09:07:28;;;;;;;14.17;9.50;;;;;;;30.12;41.61;98507.72;8364970;28;20207;-91
2021/08/14 09:11:32;;;;;;;12.10;10.00;;;;;;;30.31;41.18;98501.03;8367413;28;20193;-89
2021/08/14 09:15:34;;;;;;;11.80;9.00;;;;;;;30.21;42.32;98491.47;8366153;28;20207;-88
2021/08/14 09:19:38;;;;;;;10.23;8.70;;;;;;;30.84;40.55;98491.16;8367232;28;20197;-88
2021/08/14 09:23:41;;;;;;;10.10;9.00;;;;;;;30.47;40.93;98495.56;8372607;28;20223;-88
2021/08/14 09:27:55;;;;;;;8.57;7.70;;;;;;;31.15;40.74;98487.47;8366579;28;20200;-86
2021/08/14 09:31:59;;;;;;;10.57;8.30;;;;;;;30.36;40.48;98485.34;8366959;28;20198;-86
2021/08/14 09:36:05;;;;;;;8.23;7.53;;;;;;;31.12;40.47;98471.78;8365371;28;20415;-86
2021/08/14 09:40:10;;;;;;;11.23;7.60;;;;;;;31.09;37.17;98481.03;8363413;28;20193;-84
2021/08/14 09:44:15;;;;;;;10.93;7.30;;;;;;;31.46;36.75;98479.19;8367545;28;20219;-85
2021/08/14 09:48:20;;;;;;;9.60;7.47;;;;;;;31.45;36.20;98465.97;8366240;28;20520;-87
2021/08/14 09:52:25;;;;;;;10.50;7.50;;;;;;;31.72;35.78;98459.06;8363356;28;20201;-86
2021/08/14 09:56:32;;;;;;;8.80;7.33;;;;;;;31.78;35.63;98463.66;8368655;28;20515;-86
2021/08/14 10:00:35;;;;;;;9.70;7.20;;;;;;;31.65;34.87;98461.69;8375488;28;20288;-86
2021/08/14 10:04:38;;;;;;;10.33;6.87;;;;;;;32.26;35.79;98457.69;8385326;28;20241;-86
2021/08/14 10:08:42;;;;;;;9.33;7.00;;;;;;;31.98;36.01;98446.94;8386004;28;20204;-87
2021/08/14 10:12:46;;;;;;;8.53;6.80;;;;;;;32.54;35.82;98445.09;8378888;28;20202;-87
2021/08/14 10:16:49;;;;;;;9.53;6.90;;;;;;;32.76;34.74;98436.16;8364854;28;20406;-86
2021/08/14 10:20:52;;;;;;;12.03;7.60;;;;;;;32.82;33.58;98433.47;8365866;28;20201;-90
2021/08/14 10:24:56;;;;;;;8.77;6.97;;;;;;;32.90;34.05;98425.28;8380103;28;20242;-88
2021/08/14 10:28:59;;;;;;;7.87;7.07;;;;;;;32.98;33.31;98426.97;8382866;28;20208;-88
2021/08/14 10:33:03;;;;;;;7.77;6.50;;;;;;;32.95;33.51;98421.16;8383246;28;20204;-88
2021/08/14 10:37:35;;;;;;;11.30;6.70;;;;;;;33.14;31.65;98417.75;8381451;28;20223;-89
2021/08/14 10:41:41;;;;;;;8.20;6.57;;;;;;;33.33;32.92;98413.47;8348224;28;20419;-86
2021/08/14 10:45:44;;;;;;;6.50;5.90;;;;;;;33.31;30.98;98408.28;8349635;28;20277;-85
2021/08/14 10:49:47;;;;;;;8.63;6.00;;;;;;;33.59;31.00;98399.25;8349638;28;20209;-86
2021/08/14 10:53:51;;;;;;;7.00;5.37;;;;;;;33.56;29.63;98398.81;8349329;28;20216;-88
2021/08/14 10:57:55;;;;;;;5.87;4.83;;;;;;;33.63;29.02;98399.66;8352263;28;20198;-88
2021/08/14 11:01:58;;;;;;;9.00;4.95;;;;;;;33.69;28.57;98399.69;8368457;28;20231;-89
2021/08/14 11:06:25;;;;;;;8.25;4.80;;;;;;;33.97;29.34;98395.16;8370260;28;20216;-87
2021/08/14 11:10:40;;;;;;;6.50;4.50;;;;;;;34.06;28.79;98399.25;8371857;28;20396;-93
2021/08/14 11:14:46;;;;;;;7.03;5.20;;;;;;;34.14;28.69;98390.97;8377348;28;20554;-91
2021/08/14 11:18:54;;;;;;;18.95;5.05;;;;;;;34.19;27.93;98382.31;8370993;28;20231;-88
2021/08/14 11:22:58;;;;;;;10.20;4.90;;;;;;;34.48;28.15;98383.66;8370245;28;20253;-93
2021/08/14 11:27:01;;;;;;;9.02;4.20;;;;;;;34.60;26.60;98381.97;8388293;28;20209;-89
2021/08/14 11:31:07;;;;;;;9.63;4.55;;;;;;;34.56;27.09;98372.69;8388129;28;20200;-89
2021/08/14 11:35:10;;;;;;;8.20;4.88;;;;;;;34.01;26.59;98367.66;8388289;28;20277;-89
2021/08/14 11:39:13;;;;;;;6.30;4.72;;;;;;;34.13;28.40;98359.75;8388654;28;20243;-86
2021/08/14 11:43:18;;;;;;;5.50;4.22;;;;;;;34.30;27.09;98356.66;8389483;28;20227;-88
2021/08/14 11:47:30;;;;;;;8.55;3.72;;;;;;;34.41;26.74;98354.13;8387383;28;20203;-88
2021/08/14 11:51:32;;;;;;;4.50;4.03;;;;;;;34.56;26.84;98353.88;8387180;28;20404;-88
2021/08/14 11:55:36;;;;;;;5.07;3.83;;;;;;;34.65;24.56;98349.91;8387103;28;20215;-88
2021/08/14 11:59:39;;;;;;;8.70;3.65;;;;;;;34.66;24.24;98342.66;8386129;28;20235;-87
2021/08/14 12:03:43;;;;;;;5.63;3.40;;;;;;;34.36;23.43;98350.44;8385704;28;20239;-87
2021/08/14 12:07:46;;;;;;;7.63;3.40;;;;;;;34.20;22.69;98343.66;8386003;28;20200;-87
2021/08/14 12:11:52;;;;;;;5.43;3.25;;;;;;;34.52;20.45;98341.91;8385691;28;20226;-86
2021/08/14 12:16:09;;;;;;;3.83;3.42;;;;;;;34.30;22.05;98340.53;8385781;28;20211;-87
2021/08/14 12:20:14;;;;;;;3.88;3.30;;;;;;;34.42;22.91;98330.75;8385301;28;20277;-86
2021/08/14 12:24:17;;;;;;;7.57;3.47;;;;;;;34.36;21.75;98327.06;8385004;28;20440;-86
2021/08/14 12:28:25;;;;;;;11.82;3.47;;;;;;;34.33;22.15;98329.34;8385306;28;20216;-89
2021/08/14 12:32:30;;;;;;;6.83;3.13;;;;;;;34.42;22.74;98322.69;8385461;28;20525;-87
2021/08/14 12:36:37;;;;;;;3.85;3.10;;;;;;;34.20;20.60;98319.47;8385269;28;20238;-89
2021/08/14 12:40:41;;;;;;;6.75;2.90;;;;;;;34.61;20.90;98315.56;8392038;28;20202;-91
2021/08/14 12:44:44;;;;;;;3.60;2.83;;;;;;;34.49;20.63;98314.63;8401013;28;20227;-87
2021/08/14 12:49:18;;;;;;;5.45;3.25;;;;;;;34.66;23.80;98311.22;8384911;28;20207;-86
2021/08/14 12:53:26;;;;;;;7.73;3.07;;;;;;;34.89;22.30;98303.69;8383097;28;20422;-87
2021/08/14 12:57:29;;;;;;;2.70;2.50;;;;;;;34.45;18.58;98298.91;8384125;28;20203;-85
2021/08/14 13:01:32;;;;;;;22.35;8.20;;;;;;;34.54;19.25;98306.72;8383610;28;20200;-85
2021/08/14 13:05:35;;;;;;;3.40;2.35;;;;;;;34.78;18.48;98295.22;8383596;28;20238;-86
2021/08/14 13:09:40;;;;;;;4.18;2.20;;;;;;;34.66;18.26;98287.00;8383620;28;20204;-87
2021/08/14 13:13:43;;;;;;;5.63;2.60;;;;;;;34.78;18.54;98291.72;8383415;28;20214;-86
2021/08/14 13:17:45;;;;;;;3.90;2.10;;;;;;;34.70;18.19;98282.06;8382916;28;20249;-86
2021/08/14 13:21:49;;;;;;;4.63;2.50;;;;;;;34.65;19.75;98285.38;8383079;28;20217;-85
2021/08/14 13:25:55;;;;;;;4.68;2.63;;;;;;;34.50;19.24;98274.06;8382073;28;20227;-86
2021/08/14 13:29:57;;;;;;;5.13;2.60;;;;;;;34.56;19.83;98269.72;8383013;28;20213;-85
2021/08/14 13:34:01;;;;;;;4.55;2.40;;;;;;;34.77;20.18;98261.31;8383147;28;20218;-84
2021/08/14 13:38:05;;;;;;;4.53;2.40;;;;;;;34.60;19.78;98266.34;8382767;28;20560;-84
2021/08/14 13:42:10;;;;;;;4.27;2.40;;;;;;;34.45;19.88;98261.25;8382519;28;20220;-85
2021/08/14 13:46:13;;;;;;;3.25;2.45;;;;;;;34.62;22.23;98258.09;8382305;28;20231;-85
2021/08/14 13:50:16;;;;;;;5.30;2.70;;;;;;;34.37;20.71;98258.03;8382377;28;20209;-84
2021/08/14 13:54:18;;;;;;;5.95;2.50;;;;;;;34.38;20.29;98254.28;8382310;28;20222;-85
2021/08/14 13:58:22;;;;;;;6.83;2.87;;;;;;;34.49;21.06;98247.41;8382192;28;20368;-85
2021/08/14 14:02:26;;;;;;;4.20;2.43;;;;;;;34.36;20.62;98249.09;8382174;28;20210;-86
2021/08/14 14:06:29;;;;;;;2.97;2.40;;;;;;;34.27;19.45;98251.22;8382034;28;20234;-85
2021/08/14 14:10:32;;;;;;;3.57;2.80;;;;;;;34.12;20.25;98237.22;8382014;28;20206;-85
2021/08/14 14:14:36;;;;;;;5.10;2.33;;;;;;;34.24;20.72;98232.03;8381919;28;20213;-85
2021/08/14 14:18:39;;;;;;;3.10;2.53;;;;;;;34.15;20.61;98233.25;8381945;28;20209;-85
2021/08/14 14:22:42;;;;;;;5.93;2.53;;;;;;;34.09;20.79;98224.19;8381704;28;20490;-84
2021/08/14 14:26:45;;;;;;;6.90;2.73;;;;;;;33.81;20.91;98238.75;8381785;28;20203;-85
2021/08/14 14:30:49;;;;;;;3.50;2.70;;;;;;;33.76;20.96;98232.34;8381821;28;20208;-85
2021/08/14 14:34:52;;;;;;;6.97;2.93;;;;;;;33.86;21.75;98228.19;8381765;28;20382;-87
2021/08/14 14:38:54;;;;;;;3.50;2.77;;;;;;;33.82;22.18;98232.34;8390011;28;20230;-86
2021/08/14 14:42:58;;;;;;;3.95;2.67;;;;;;;33.56;21.70;98227.84;8388082;28;20208;-85
2021/08/14 14:47:03;;;;;;;5.37;2.80;;;;;;;33.57;22.42;98226.00;8387948;28;20493;-85
2021/08/14 14:51:05;;;;;;;4.07;2.63;;;;;;;33.60;22.97;98217.50;8387815;28;20391;-86
2021/08/14 14:55:08;;;;;;;7.23;3.37;;;;;;;33.44;22.61;98216.09;8387809;28;20213;-84
2021/08/14 14:59:11;;;;;;;3.57;2.67;;;;;;;33.59;23.50;98208.63;8387667;28;20203;-85
2021/08/14 15:03:15;;;;;;;6.23;2.70;;;;;;;33.39;23.46;98210.53;8387717;28;20233;-87
2021/08/14 15:07:18;;;;;;;3.40;2.90;;;;;;;33.27;22.74;98202.28;8387998;28;20230;-87
2021/08/14 15:11:21;;;;;;;7.28;3.20;;;;;;;33.09;23.04;98201.03;8400650;28;20226;-86
2021/08/14 15:15:24;;;;;;;3.80;3.00;;;;;;;33.00;23.21;98193.41;8389153;28;20213;-87
2021/08/14 15:19:30;;;;;;;6.50;2.63;;;;;;;32.87;23.09;98188.84;8386893;28;20558;-86
2021/08/14 15:23:32;;;;;;;3.43;2.80;;;;;;;32.85;23.04;98189.06;8386534;28;20252;-85
2021/08/14 15:27:35;;;;;;;4.23;2.90;;;;;;;32.81;23.17;98189.69;8386722;28;20200;-87
2021/08/14 15:31:38;;;;;;;4.97;2.53;;;;;;;32.72;22.34;98194.41;8378680;28;20213;-85
2021/08/14 15:35:42;;;;;;;4.93;2.90;;;;;;;32.64;22.64;98190.06;8368762;28;20227;-84
2021/08/14 15:39:46;;;;;;;4.93;3.10;;;;;;;32.44;23.25;98183.81;8368645;28;20259;-85
2021/08/14 15:43:49;;;;;;;4.63;2.80;;;;;;;32.35;22.99;98180.53;8368449;28;20398;-84
2021/08/14 15:47:52;;;;;;;3.70;2.67;;;;;;;32.24;23.43;98183.78;8367811;28;20415;-85
2021/08/14 15:51:56;;;;;;;2.53;2.30;;;;;;;32.13;24.33;98175.28;8368145;28;20394;-84
2021/08/14 15:55:59;;;;;;;3.43;2.60;;;;;;;32.02;23.99;98178.53;8364410;28;20197;-84
2021/08/14 16:00:01;;;;;;;5.97;2.80;;;;;;;31.99;24.41;98167.38;8366813;28;20527;-84
2021/08/14 16:04:06;;;;;;;4.47;2.97;;;;;;;31.90;25.23;98167.56;8367628;28;20230;-85
2021/08/14 16:08:26;;;;;;;13.27;3.60;;;;;;;31.81;25.08;98178.66;8368976;28;20499;-86
2021/08/14 16:12:28;;;;;;;6.23;3.60;;;;;;;31.58;24.94;98169.06;8367898;28;20387;-85
2021/08/14 16:16:31;;;;;;;8.47;5.30;;;;;;;31.42;25.08;98162.16;8367685;28;20202;-85
2021/08/14 16:20:35;;;;;;;14.57;11.17;;;;;;;31.26;25.37;98155.25;8369567;28;20195;-85
2021/08/14 16:24:40;;;;;;;6.07;3.47;;;;;;;31.21;25.30;98164.91;8369560;28;20224;-85
2021/08/14 16:28:43;;;;;;;5.47;3.13;;;;;;;31.12;25.71;98159.69;8367283;28;20196;-85
2021/08/14 16:32:46;;;;;;;7.20;3.53;;;;;;;31.02;26.30;98153.88;8366365;28;20498;-85
2021/08/14 16:36:49;;;;;;;5.97;3.10;;;;;;;30.87;26.36;98143.22;8379905;28;20321;-86
2021/08/14 16:40:54;;;;;;;8.50;3.50;;;;;;;30.72;26.75;98140.63;8384160;28;20201;-83
2021/08/14 16:44:57;;;;;;;17.50;11.80;;;;;;;30.66;27.21;98145.94;8384215;28;20250;-83
2021/08/14 16:49:00;;;;;;;16.03;5.47;;;;;;;30.67;28.16;98150.25;8383973;28;20200;-87
2021/08/14 16:53:05;;;;;;;12.60;9.40;;;;;;;30.45;28.26;98150.28;8383967;28;20470;-83
2021/08/14 16:57:09;;;;;;;10.70;8.37;;;;;;;30.36;28.61;98138.06;8383829;28;20209;-85
2021/08/14 17:01:12;;;;;;;11.00;6.60;;;;;;;30.19;29.33;98140.09;8383593;28;20235;-85
2021/08/14 17:05:15;;;;;;;9.50;4.73;;;;;;;30.09;28.97;98137.75;8383357;28;20329;-84
2021/08/14 17:09:18;;;;;;;6.43;4.40;;;;;;;30.06;29.63;98130.09;8383566;28;20233;-85
2021/08/14 17:13:22;;;;;;;6.23;4.27;;;;;;;30.07;30.31;98125.63;8383241;28;20211;-84
2021/08/14 17:17:27;;;;;;;5.73;3.90;;;;;;;29.95;30.50;98131.44;8383203;28;20270;-85
2021/08/14 17:21:31;;;;;;;6.17;4.00;;;;;;;29.86;29.89;98121.88;8383025;28;20203;-84
2021/08/14 17:25:34;;;;;;;11.53;3.87;;;;;;;29.76;30.43;98118.69;8382690;28;20236;-85
2021/08/14 17:29:38;;;;;;;7.77;3.57;;;;;;;29.65;30.40;98117.28;8381059;28;20199;-84
2021/08/14 17:33:41;;;;;;;8.30;4.00;;;;;;;29.58;30.77;98114.53;8379569;28;20196;-84
2021/08/14 17:37:44;;;;;;;8.70;3.57;;;;;;;29.47;31.90;98127.50;8394844;28;20226;-83
2021/08/14 17:41:50;;;;;;;9.13;4.17;;;;;;;29.39;31.74;98118.59;8383551;28;20226;-83
2021/08/14 17:45:54;;;;;;;6.73;3.50;;;;;;;29.35;31.97;98117.31;8381972;28;20234;-83
2021/08/14 17:49:57;;;;;;;4.87;3.57;;;;;;;29.22;32.67;98117.94;8382286;28;20288;-83
2021/08/14 17:54:00;;;;;;;7.87;5.47;;;;;;;29.10;32.74;98118.56;8382183;28;20490;-83
2021/08/14 17:58:02;;;;;;;7.43;4.90;;;;;;;28.99;33.21;98117.16;8382179;28;20216;-83
2021/08/14 18:02:07;;;;;;;8.10;5.40;;;;;;;28.89;34.17;98119.28;8381997;28;20202;-83
2021/08/14 18:06:12;;;;;;;8.80;4.10;;;;;;;28.76;35.14;98110.06;8381852;28;20526;-84
2021/08/14 18:10:15;;;;;;;10.57;5.03;;;;;;;28.73;34.89;98107.75;8384319;28;20394;-84
2021/08/14 18:14:18;;;;;;;9.17;6.17;;;;;;;28.62;37.00;98105.53;8388941;28;20219;-83
2021/08/14 18:18:22;;;;;;;7.53;5.60;;;;;;;28.53;38.22;98110.09;8384758;28;20208;-83
2021/08/14 18:22:25;;;;;;;8.97;6.50;;;;;;;28.42;38.67;98111.28;8388636;28;20205;-82
2021/08/14 18:26:28;;;;;;;9.93;6.63;;;;;;;28.40;39.71;98113.31;8385529;28;20522;-83
2021/08/14 18:30:30;;;;;;;11.57;6.77;;;;;;;28.30;40.46;98107.41;8388231;28;20192;-83
2021/08/14 18:34:35;;;;;;;15.30;7.13;;;;;;;28.16;41.41;98110.81;8388192;28;20217;-83
2021/08/14 18:38:38;;;;;;;8.27;5.70;;;;;;;28.04;41.15;98113.88;8388097;28;20248;-83
2021/08/14 18:42:40;;;;;;;10.47;5.77;;;;;;;27.93;41.88;98113.47;8388513;28;20476;-82
2021/08/14 18:46:43;;;;;;;14.47;5.40;;;;;;;27.81;42.25;98116.47;8387671;28;20223;-83
2021/08/14 18:50:48;;;;;;;13.73;6.30;;;;;;;27.75;42.75;98117.19;8388544;28;20206;-83
2021/08/14 18:54:50;;;;;;;10.77;5.10;;;;;;;27.68;42.62;98113.56;8390480;28;20214;-84
2021/08/14 18:58:53;;;;;;;12.33;4.83;;;;;;;27.61;42.63;98117.94;8388626;28;20201;-84